sensor_id;sensor_type;location;lat;lon;timestamp;P1;durP1;ratioP1;P2;durP2;ratioP2
8640;SDS011;4358;42.100;25.222;2023-06-10T00:01:36;5.60;;;4.00;;
8640;SDS011;4358;42.100;25.222;2023-06-10T00:04:03;4.20;;;3.80;;
8640;SDS011;4358;42.100;25.222;2023-06-10T00:06:30;5.43;;;3.73;;
8640;SDS011;4358;42.100;25.222;2023-06-10T00:09:00;4.90;;;4.13;;
8640;SDS011;4358;42.100;25.222;2023-06-10T00:11:31;4.70;;;3.50;;
8640;SDS011;4358;42.100;25.222;2023-06-10T00:13:58;4.30;;;3.60;;
8640;SDS011;4358;42.100;25.222;2023-06-10T00:16:25;5.07;;;3.80;;
8640;SDS011;4358;42.100;25.222;2023-06-10T00:18:52;4.83;;;3.97;;
8640;SDS011;4358;42.100;25.222;2023-06-10T00:21:21;4.30;;;3.90;;
8640;SDS011;4358;42.100;25.222;2023-06-10T00:23:49;4.27;;;3.50;;
8640;SDS011;4358;42.100;25.222;2023-06-10T00:26:16;4.10;;;3.60;;
8640;SDS011;4358;42.100;25.222;2023-06-10T00:28:45;3.60;;;3.30;;
8640;SDS011;4358;42.100;25.222;2023-06-10T00:31:11;4.03;;;3.40;;
8640;SDS011;4358;42.100;25.222;2023-06-10T00:33:38;3.50;;;3.20;;
8640;SDS011;4358;42.100;25.222;2023-06-10T00:36:05;4.70;;;3.77;;
8640;SDS011;4358;42.100;25.222;2023-06-10T00:38:32;4.07;;;3.20;;
8640;SDS011;4358;42.100;25.222;2023-06-10T00:40:59;4.57;;;3.67;;
8640;SDS011;4358;42.100;25.222;2023-06-10T00:43:27;3.90;;;3.50;;
8640;SDS011;4358;42.100;25.222;2023-06-10T00:45:55;3.43;;;3.13;;
8640;SDS011;4358;42.100;25.222;2023-06-10T00:48:22;3.73;;;3.40;;
8640;SDS011;4358;42.100;25.222;2023-06-10T00:50:50;4.73;;;3.13;;
8640;SDS011;4358;42.100;25.222;2023-06-10T00:53:16;6.40;;;3.30;;
8640;SDS011;4358;42.100;25.222;2023-06-10T00:55:44;3.60;;;3.13;;
8640;SDS011;4358;42.100;25.222;2023-06-10T00:58:11;4.40;;;3.40;;
8640;SDS011;4358;42.100;25.222;2023-06-10T01:00:38;4.77;;;4.33;;
8640;SDS011;4358;42.100;25.222;2023-06-10T01:03:06;11.23;;;10.13;;
8640;SDS011;4358;42.100;25.222;2023-06-10T01:05:33;5.23;;;4.37;;
8640;SDS011;4358;42.100;25.222;2023-06-10T01:08:03;7.70;;;6.90;;
8640;SDS011;4358;42.100;25.222;2023-06-10T01:10:38;8.47;;;7.67;;
8640;SDS011;4358;42.100;25.222;2023-06-10T01:13:09;6.00;;;5.50;;
8640;SDS011;4358;42.100;25.222;2023-06-10T01:15:38;9.03;;;7.07;;
8640;SDS011;4358;42.100;25.222;2023-06-10T01:18:07;8.77;;;7.37;;
8640;SDS011;4358;42.100;25.222;2023-06-10T01:20:35;8.03;;;6.23;;
8640;SDS011;4358;42.100;25.222;2023-06-10T01:23:06;5.90;;;5.03;;
8640;SDS011;4358;42.100;25.222;2023-06-10T01:25:35;4.57;;;3.80;;
8640;SDS011;4358;42.100;25.222;2023-06-10T01:28:07;9.57;;;5.07;;
8640;SDS011;4358;42.100;25.222;2023-06-10T01:30:40;6.80;;;5.37;;
8640;SDS011;4358;42.100;25.222;2023-06-10T01:33:12;11.97;;;10.77;;
8640;SDS011;4358;42.100;25.222;2023-06-10T01:35:43;16.50;;;13.13;;
8640;SDS011;4358;42.100;25.222;2023-06-10T01:38:14;16.50;;;14.30;;
8640;SDS011;4358;42.100;25.222;2023-06-10T01:40:42;11.47;;;10.27;;
8640;SDS011;4358;42.100;25.222;2023-06-10T01:43:09;7.43;;;6.13;;
8640;SDS011;4358;42.100;25.222;2023-06-10T01:45:36;6.63;;;4.93;;
8640;SDS011;4358;42.100;25.222;2023-06-10T01:48:03;5.77;;;4.17;;
8640;SDS011;4358;42.100;25.222;2023-06-10T01:50:30;3.30;;;3.00;;
8640;SDS011;4358;42.100;25.222;2023-06-10T01:52:57;4.23;;;3.63;;
8640;SDS011;4358;42.100;25.222;2023-06-10T01:55:27;3.23;;;2.93;;
8640;SDS011;4358;42.100;25.222;2023-06-10T01:57:54;5.97;;;4.17;;
8640;SDS011;4358;42.100;25.222;2023-06-10T02:00:21;4.17;;;3.77;;
8640;SDS011;4358;42.100;25.222;2023-06-10T02:02:48;4.47;;;4.07;;
8640;SDS011;4358;42.100;25.222;2023-06-10T02:05:15;10.13;;;7.57;;
8640;SDS011;4358;42.100;25.222;2023-06-10T02:07:42;10.27;;;9.27;;
8640;SDS011;4358;42.100;25.222;2023-06-10T02:10:09;6.23;;;5.67;;
8640;SDS011;4358;42.100;25.222;2023-06-10T02:12:37;8.70;;;6.90;;
8640;SDS011;4358;42.100;25.222;2023-06-10T02:15:04;8.33;;;6.90;;
8640;SDS011;4358;42.100;25.222;2023-06-10T02:17:31;9.43;;;7.17;;
8640;SDS011;4358;42.100;25.222;2023-06-10T02:19:58;6.83;;;6.13;;
8640;SDS011;4358;42.100;25.222;2023-06-10T02:22:29;5.87;;;5.17;;
8640;SDS011;4358;42.100;25.222;2023-06-10T02:24:56;7.33;;;5.30;;
8640;SDS011;4358;42.100;25.222;2023-06-10T02:27:22;6.17;;;5.20;;
8640;SDS011;4358;42.100;25.222;2023-06-10T02:29:51;6.50;;;5.33;;
8640;SDS011;4358;42.100;25.222;2023-06-10T02:32:17;5.83;;;5.27;;
8640;SDS011;4358;42.100;25.222;2023-06-10T02:34:44;8.57;;;7.67;;
8640;SDS011;4358;42.100;25.222;2023-06-10T02:37:11;9.67;;;7.93;;
8640;SDS011;4358;42.100;25.222;2023-06-10T02:39:38;7.97;;;6.70;;
8640;SDS011;4358;42.100;25.222;2023-06-10T02:42:05;8.67;;;7.43;;
8640;SDS011;4358;42.100;25.222;2023-06-10T02:44:33;7.50;;;6.70;;
8640;SDS011;4358;42.100;25.222;2023-06-10T02:47:01;6.60;;;5.70;;
8640;SDS011;4358;42.100;25.222;2023-06-10T02:49:28;6.63;;;5.80;;
8640;SDS011;4358;42.100;25.222;2023-06-10T02:51:55;8.30;;;5.70;;
8640;SDS011;4358;42.100;25.222;2023-06-10T02:54:22;5.80;;;5.23;;
8640;SDS011;4358;42.100;25.222;2023-06-10T02:56:49;6.20;;;5.20;;
8640;SDS011;4358;42.100;25.222;2023-06-10T02:59:17;5.83;;;5.23;;
8640;SDS011;4358;42.100;25.222;2023-06-10T03:01:46;9.27;;;6.03;;
8640;SDS011;4358;42.100;25.222;2023-06-10T03:04:14;8.57;;;6.47;;
8640;SDS011;4358;42.100;25.222;2023-06-10T03:06:41;9.23;;;7.60;;
8640;SDS011;4358;42.100;25.222;2023-06-10T03:09:09;6.37;;;5.50;;
8640;SDS011;4358;42.100;25.222;2023-06-10T03:11:36;7.07;;;5.80;;
8640;SDS011;4358;42.100;25.222;2023-06-10T03:14:03;7.27;;;5.83;;
8640;SDS011;4358;42.100;25.222;2023-06-10T03:16:30;6.33;;;5.50;;
8640;SDS011;4358;42.100;25.222;2023-06-10T03:18:57;6.60;;;3.87;;
8640;SDS011;4358;42.100;25.222;2023-06-10T03:21:25;6.37;;;4.97;;
8640;SDS011;4358;42.100;25.222;2023-06-10T03:23:52;6.20;;;5.27;;
8640;SDS011;4358;42.100;25.222;2023-06-10T03:26:19;11.63;;;7.87;;
8640;SDS011;4358;42.100;25.222;2023-06-10T03:28:46;9.70;;;8.70;;
8640;SDS011;4358;42.100;25.222;2023-06-10T03:31:13;9.97;;;7.80;;
8640;SDS011;4358;42.100;25.222;2023-06-10T03:33:42;8.23;;;7.40;;
8640;SDS011;4358;42.100;25.222;2023-06-10T03:36:08;10.57;;;9.30;;
8640;SDS011;4358;42.100;25.222;2023-06-10T03:38:37;7.77;;;5.90;;
8640;SDS011;4358;42.100;25.222;2023-06-10T03:41:04;7.17;;;6.00;;
8640;SDS011;4358;42.100;25.222;2023-06-10T03:43:30;8.70;;;7.73;;
8640;SDS011;4358;42.100;25.222;2023-06-10T03:45:58;9.33;;;7.80;;
8640;SDS011;4358;42.100;25.222;2023-06-10T03:48:24;10.23;;;7.20;;
8640;SDS011;4358;42.100;25.222;2023-06-10T03:50:51;8.00;;;6.73;;
8640;SDS011;4358;42.100;25.222;2023-06-10T03:53:18;7.30;;;6.60;;
8640;SDS011;4358;42.100;25.222;2023-06-10T03:55:46;6.90;;;5.87;;
8640;SDS011;4358;42.100;25.222;2023-06-10T03:58:13;6.73;;;5.87;;
8640;SDS011;4358;42.100;25.222;2023-06-10T04:00:40;8.07;;;6.80;;
8640;SDS011;4358;42.100;25.222;2023-06-10T04:03:07;6.90;;;5.87;;
8640;SDS011;4358;42.100;25.222;2023-06-10T04:05:39;7.80;;;6.53;;
8640;SDS011;4358;42.100;25.222;2023-06-10T04:08:07;8.20;;;6.83;;
8640;SDS011;4358;42.100;25.222;2023-06-10T04:10:33;8.03;;;6.67;;
8640;SDS011;4358;42.100;25.222;2023-06-10T04:13:02;12.00;;;8.07;;
8640;SDS011;4358;42.100;25.222;2023-06-10T04:15:29;8.03;;;6.17;;
8640;SDS011;4358;42.100;25.222;2023-06-10T04:17:58;5.10;;;4.57;;
8640;SDS011;4358;42.100;25.222;2023-06-10T04:20:25;8.90;;;8.00;;
8640;SDS011;4358;42.100;25.222;2023-06-10T04:22:51;6.73;;;5.73;;
8640;SDS011;4358;42.100;25.222;2023-06-10T04:25:18;7.83;;;7.00;;
8640;SDS011;4358;42.100;25.222;2023-06-10T04:27:45;7.07;;;6.10;;
8640;SDS011;4358;42.100;25.222;2023-06-10T04:30:14;8.27;;;6.03;;
8640;SDS011;4358;42.100;25.222;2023-06-10T04:32:41;6.17;;;5.30;;
8640;SDS011;4358;42.100;25.222;2023-06-10T04:35:11;6.23;;;5.43;;
8640;SDS011;4358;42.100;25.222;2023-06-10T04:37:38;6.30;;;5.70;;
8640;SDS011;4358;42.100;25.222;2023-06-10T04:40:06;7.47;;;6.80;;
8640;SDS011;4358;42.100;25.222;2023-06-10T04:42:34;8.90;;;6.50;;
8640;SDS011;4358;42.100;25.222;2023-06-10T04:45:00;8.53;;;6.87;;
8640;SDS011;4358;42.100;25.222;2023-06-10T04:47:30;6.77;;;6.07;;
8640;SDS011;4358;42.100;25.222;2023-06-10T04:49:58;7.30;;;6.37;;
8640;SDS011;4358;42.100;25.222;2023-06-10T04:52:25;7.17;;;6.47;;
8640;SDS011;4358;42.100;25.222;2023-06-10T04:54:52;8.47;;;6.33;;
8640;SDS011;4358;42.100;25.222;2023-06-10T04:57:19;8.47;;;7.17;;
8640;SDS011;4358;42.100;25.222;2023-06-10T04:59:47;5.93;;;5.37;;
8640;SDS011;4358;42.100;25.222;2023-06-10T05:02:14;6.07;;;5.43;;
8640;SDS011;4358;42.100;25.222;2023-06-10T05:04:42;10.13;;;5.73;;
8640;SDS011;4358;42.100;25.222;2023-06-10T05:07:09;6.03;;;5.53;;
8640;SDS011;4358;42.100;25.222;2023-06-10T05:09:36;6.77;;;5.57;;
8640;SDS011;4358;42.100;25.222;2023-06-10T05:12:03;6.13;;;5.53;;
8640;SDS011;4358;42.100;25.222;2023-06-10T05:14:30;7.07;;;5.53;;
8640;SDS011;4358;42.100;25.222;2023-06-10T05:16:57;7.43;;;5.77;;
8640;SDS011;4358;42.100;25.222;2023-06-10T05:19:24;6.43;;;5.83;;
8640;SDS011;4358;42.100;25.222;2023-06-10T05:21:54;8.30;;;6.63;;
8640;SDS011;4358;42.100;25.222;2023-06-10T05:24:20;7.10;;;6.47;;
8640;SDS011;4358;42.100;25.222;2023-06-10T05:26:48;7.27;;;6.27;;
8640;SDS011;4358;42.100;25.222;2023-06-10T05:29:15;7.77;;;6.63;;
8640;SDS011;4358;42.100;25.222;2023-06-10T05:31:42;6.77;;;5.70;;
8640;SDS011;4358;42.100;25.222;2023-06-10T05:34:09;7.23;;;5.63;;
8640;SDS011;4358;42.100;25.222;2023-06-10T05:36:35;9.17;;;5.97;;
8640;SDS011;4358;42.100;25.222;2023-06-10T05:39:03;6.03;;;5.50;;
8640;SDS011;4358;42.100;25.222;2023-06-10T05:41:30;9.53;;;6.33;;
8640;SDS011;4358;42.100;25.222;2023-06-10T05:43:57;8.40;;;6.00;;
8640;SDS011;4358;42.100;25.222;2023-06-10T05:46:24;6.97;;;6.10;;
8640;SDS011;4358;42.100;25.222;2023-06-10T05:48:51;8.47;;;6.93;;
8640;SDS011;4358;42.100;25.222;2023-06-10T05:51:18;10.33;;;7.27;;
8640;SDS011;4358;42.100;25.222;2023-06-10T05:53:44;14.40;;;8.47;;
8640;SDS011;4358;42.100;25.222;2023-06-10T05:56:13;10.83;;;9.33;;
8640;SDS011;4358;42.100;25.222;2023-06-10T05:58:40;10.83;;;9.47;;
8640;SDS011;4358;42.100;25.222;2023-06-10T06:01:07;12.70;;;8.70;;
8640;SDS011;4358;42.100;25.222;2023-06-10T06:03:33;8.50;;;7.27;;
8640;SDS011;4358;42.100;25.222;2023-06-10T06:06:00;7.77;;;6.87;;
8640;SDS011;4358;42.100;25.222;2023-06-10T06:08:27;7.07;;;6.37;;
8640;SDS011;4358;42.100;25.222;2023-06-10T06:10:54;8.57;;;6.07;;
8640;SDS011;4358;42.100;25.222;2023-06-10T06:13:22;6.50;;;5.77;;
8640;SDS011;4358;42.100;25.222;2023-06-10T06:15:49;8.27;;;6.67;;
8640;SDS011;4358;42.100;25.222;2023-06-10T06:18:16;7.03;;;6.00;;
8640;SDS011;4358;42.100;25.222;2023-06-10T06:20:43;6.40;;;5.73;;
8640;SDS011;4358;42.100;25.222;2023-06-10T06:23:10;6.87;;;6.07;;
8640;SDS011;4358;42.100;25.222;2023-06-10T06:25:37;7.00;;;5.40;;
8640;SDS011;4358;42.100;25.222;2023-06-10T06:28:05;6.53;;;5.07;;
8640;SDS011;4358;42.100;25.222;2023-06-10T06:30:33;7.07;;;5.03;;
8640;SDS011;4358;42.100;25.222;2023-06-10T06:33:00;6.00;;;5.07;;
8640;SDS011;4358;42.100;25.222;2023-06-10T06:35:27;9.93;;;5.83;;
8640;SDS011;4358;42.100;25.222;2023-06-10T06:37:56;6.67;;;5.23;;
8640;SDS011;4358;42.100;25.222;2023-06-10T06:40:24;5.77;;;5.17;;
8640;SDS011;4358;42.100;25.222;2023-06-10T06:42:50;7.67;;;5.43;;
8640;SDS011;4358;42.100;25.222;2023-06-10T06:45:17;5.40;;;4.87;;
8640;SDS011;4358;42.100;25.222;2023-06-10T06:47:46;5.60;;;5.10;;
8640;SDS011;4358;42.100;25.222;2023-06-10T06:50:12;5.97;;;4.80;;
8640;SDS011;4358;42.100;25.222;2023-06-10T06:52:39;5.63;;;5.13;;
8640;SDS011;4358;42.100;25.222;2023-06-10T06:55:06;6.10;;;4.67;;
8640;SDS011;4358;42.100;25.222;2023-06-10T06:57:34;8.80;;;5.33;;
8640;SDS011;4358;42.100;25.222;2023-06-10T07:00:04;5.80;;;5.20;;
8640;SDS011;4358;42.100;25.222;2023-06-10T07:02:31;8.13;;;5.67;;
8640;SDS011;4358;42.100;25.222;2023-06-10T07:04:59;6.50;;;5.67;;
8640;SDS011;4358;42.100;25.222;2023-06-10T07:07:26;8.37;;;5.93;;
8640;SDS011;4358;42.100;25.222;2023-06-10T07:09:53;7.60;;;6.00;;
8640;SDS011;4358;42.100;25.222;2023-06-10T07:12:20;12.03;;;5.37;;
8640;SDS011;4358;42.100;25.222;2023-06-10T07:14:49;6.60;;;6.00;;
8640;SDS011;4358;42.100;25.222;2023-06-10T07:17:16;6.20;;;5.60;;
8640;SDS011;4358;42.100;25.222;2023-06-10T07:19:43;8.00;;;5.80;;
8640;SDS011;4358;42.100;25.222;2023-06-10T07:22:11;6.80;;;5.00;;
8640;SDS011;4358;42.100;25.222;2023-06-10T07:24:38;7.30;;;5.80;;
8640;SDS011;4358;42.100;25.222;2023-06-10T07:27:05;6.00;;;5.30;;
8640;SDS011;4358;42.100;25.222;2023-06-10T07:29:32;4.73;;;4.33;;
8640;SDS011;4358;42.100;25.222;2023-06-10T07:32:01;5.93;;;4.60;;
8640;SDS011;4358;42.100;25.222;2023-06-10T07:34:29;5.37;;;4.87;;
8640;SDS011;4358;42.100;25.222;2023-06-10T07:36:56;6.97;;;5.33;;
8640;SDS011;4358;42.100;25.222;2023-06-10T07:39:24;5.30;;;4.80;;
8640;SDS011;4358;42.100;25.222;2023-06-10T07:41:51;6.13;;;4.97;;
8640;SDS011;4358;42.100;25.222;2023-06-10T07:44:19;5.87;;;5.07;;
8640;SDS011;4358;42.100;25.222;2023-06-10T07:46:46;7.07;;;4.60;;
8640;SDS011;4358;42.100;25.222;2023-06-10T07:49:13;5.60;;;5.10;;
8640;SDS011;4358;42.100;25.222;2023-06-10T07:51:40;5.67;;;4.90;;
8640;SDS011;4358;42.100;25.222;2023-06-10T07:54:06;7.47;;;4.77;;
8640;SDS011;4358;42.100;25.222;2023-06-10T07:56:35;8.00;;;5.63;;
8640;SDS011;4358;42.100;25.222;2023-06-10T07:59:01;5.87;;;5.27;;
8640;SDS011;4358;42.100;25.222;2023-06-10T08:01:28;5.87;;;5.37;;
8640;SDS011;4358;42.100;25.222;2023-06-10T08:03:56;6.80;;;5.70;;
8640;SDS011;4358;42.100;25.222;2023-06-10T08:06:23;6.37;;;5.70;;
8640;SDS011;4358;42.100;25.222;2023-06-10T08:08:50;6.03;;;5.40;;
8640;SDS011;4358;42.100;25.222;2023-06-10T08:11:16;5.57;;;4.93;;
8640;SDS011;4358;42.100;25.222;2023-06-10T08:13:44;6.67;;;5.90;;
8640;SDS011;4358;42.100;25.222;2023-06-10T08:16:11;6.83;;;5.40;;
8640;SDS011;4358;42.100;25.222;2023-06-10T08:18:38;10.93;;;5.90;;
8640;SDS011;4358;42.100;25.222;2023-06-10T08:21:05;5.17;;;4.67;;
8640;SDS011;4358;42.100;25.222;2023-06-10T08:23:32;5.50;;;5.00;;
8640;SDS011;4358;42.100;25.222;2023-06-10T08:25:58;14.40;;;5.20;;
8640;SDS011;4358;42.100;25.222;2023-06-10T08:28:25;6.33;;;4.73;;
8640;SDS011;4358;42.100;25.222;2023-06-10T08:30:53;6.30;;;4.83;;
8640;SDS011;4358;42.100;25.222;2023-06-10T08:33:20;5.10;;;4.60;;
8640;SDS011;4358;42.100;25.222;2023-06-10T08:35:47;4.70;;;4.13;;
8640;SDS011;4358;42.100;25.222;2023-06-10T08:38:14;4.53;;;4.13;;
8640;SDS011;4358;42.100;25.222;2023-06-10T08:40:41;4.80;;;4.23;;
8640;SDS011;4358;42.100;25.222;2023-06-10T08:43:08;8.17;;;3.93;;
8640;SDS011;4358;42.100;25.222;2023-06-10T08:45:42;6.43;;;3.57;;
8640;SDS011;4358;42.100;25.222;2023-06-10T08:48:15;4.93;;;3.60;;
8640;SDS011;4358;42.100;25.222;2023-06-10T08:50:45;4.83;;;3.90;;
8640;SDS011;4358;42.100;25.222;2023-06-10T08:53:14;6.33;;;3.77;;
8640;SDS011;4358;42.100;25.222;2023-06-10T08:55:46;4.20;;;3.80;;
8640;SDS011;4358;42.100;25.222;2023-06-10T08:58:17;4.47;;;4.07;;
8640;SDS011;4358;42.100;25.222;2023-06-10T09:00:44;6.23;;;3.97;;
8640;SDS011;4358;42.100;25.222;2023-06-10T09:03:12;7.47;;;4.20;;
8640;SDS011;4358;42.100;25.222;2023-06-10T09:05:40;4.50;;;3.57;;
8640;SDS011;4358;42.100;25.222;2023-06-10T09:08:08;6.07;;;3.90;;
8640;SDS011;4358;42.100;25.222;2023-06-10T09:10:35;4.57;;;4.00;;
8640;SDS011;4358;42.100;25.222;2023-06-10T09:13:02;4.57;;;3.73;;
8640;SDS011;4358;42.100;25.222;2023-06-10T09:15:29;5.33;;;4.20;;
8640;SDS011;4358;42.100;25.222;2023-06-10T09:17:55;7.67;;;4.17;;
8640;SDS011;4358;42.100;25.222;2023-06-10T09:20:22;7.13;;;3.90;;
8640;SDS011;4358;42.100;25.222;2023-06-10T09:22:51;4.70;;;3.73;;
8640;SDS011;4358;42.100;25.222;2023-06-10T09:25:17;5.63;;;3.67;;
8640;SDS011;4358;42.100;25.222;2023-06-10T09:27:45;4.17;;;3.70;;
8640;SDS011;4358;42.100;25.222;2023-06-10T09:30:24;4.40;;;3.50;;
8640;SDS011;4358;42.100;25.222;2023-06-10T09:32:52;13.07;;;3.73;;
8640;SDS011;4358;42.100;25.222;2023-06-10T09:35:21;4.70;;;3.63;;
8640;SDS011;4358;42.100;25.222;2023-06-10T09:37:51;4.00;;;3.60;;
8640;SDS011;4358;42.100;25.222;2023-06-10T09:40:18;4.70;;;3.60;;
8640;SDS011;4358;42.100;25.222;2023-06-10T09:42:45;5.17;;;3.70;;
8640;SDS011;4358;42.100;25.222;2023-06-10T09:45:14;4.90;;;3.85;;
8640;SDS011;4358;42.100;25.222;2023-06-10T09:47:41;4.10;;;3.70;;
8640;SDS011;4358;42.100;25.222;2023-06-10T09:50:08;4.30;;;3.55;;
8640;SDS011;4358;42.100;25.222;2023-06-10T09:52:36;4.40;;;3.13;;
8640;SDS011;4358;42.100;25.222;2023-06-10T09:55:07;4.93;;;3.10;;
8640;SDS011;4358;42.100;25.222;2023-06-10T09:57:35;3.40;;;3.10;;
8640;SDS011;4358;42.100;25.222;2023-06-10T10:00:04;4.63;;;3.45;;
8640;SDS011;4358;42.100;25.222;2023-06-10T10:02:33;3.45;;;3.15;;
8640;SDS011;4358;42.100;25.222;2023-06-10T10:05:11;5.03;;;3.30;;
8640;SDS011;4358;42.100;25.222;2023-06-10T10:07:40;5.32;;;3.72;;
8640;SDS011;4358;42.100;25.222;2023-06-10T10:10:08;4.68;;;3.53;;
8640;SDS011;4358;42.100;25.222;2023-06-10T10:12:36;5.13;;;3.47;;
8640;SDS011;4358;42.100;25.222;2023-06-10T10:15:05;3.60;;;3.30;;
8640;SDS011;4358;42.100;25.222;2023-06-10T10:17:34;4.25;;;3.25;;
8640;SDS011;4358;42.100;25.222;2023-06-10T10:20:03;3.45;;;3.15;;
8640;SDS011;4358;42.100;25.222;2023-06-10T10:22:33;4.28;;;3.40;;
8640;SDS011;4358;42.100;25.222;2023-06-10T10:25:05;5.00;;;3.70;;
8640;SDS011;4358;42.100;25.222;2023-06-10T10:27:40;3.40;;;3.10;;
8640;SDS011;4358;42.100;25.222;2023-06-10T10:30:10;3.53;;;3.22;;
8640;SDS011;4358;42.100;25.222;2023-06-10T10:32:38;4.83;;;3.30;;
8640;SDS011;4358;42.100;25.222;2023-06-10T10:35:11;4.07;;;3.60;;
8640;SDS011;4358;42.100;25.222;2023-06-10T10:37:42;7.57;;;3.53;;
8640;SDS011;4358;42.100;25.222;2023-06-10T10:40:11;5.10;;;3.47;;
8640;SDS011;4358;42.100;25.222;2023-06-10T10:42:40;4.53;;;3.20;;
8640;SDS011;4358;42.100;25.222;2023-06-10T10:45:07;5.97;;;3.80;;
8640;SDS011;4358;42.100;25.222;2023-06-10T10:47:36;3.37;;;3.00;;
8640;SDS011;4358;42.100;25.222;2023-06-10T10:50:12;5.97;;;3.40;;
8640;SDS011;4358;42.100;25.222;2023-06-10T10:52:50;3.60;;;3.30;;
8640;SDS011;4358;42.100;25.222;2023-06-10T10:55:20;5.30;;;3.40;;
8640;SDS011;4358;42.100;25.222;2023-06-10T10:57:53;4.10;;;3.57;;
8640;SDS011;4358;42.100;25.222;2023-06-10T11:00:24;3.77;;;3.33;;
8640;SDS011;4358;42.100;25.222;2023-06-10T11:02:53;3.53;;;2.77;;
8640;SDS011;4358;42.100;25.222;2023-06-10T11:05:31;4.83;;;3.33;;
8640;SDS011;4358;42.100;25.222;2023-06-10T11:08:02;4.47;;;3.47;;
8640;SDS011;4358;42.100;25.222;2023-06-10T11:10:31;4.83;;;2.80;;
8640;SDS011;4358;42.100;25.222;2023-06-10T11:12:59;3.43;;;3.07;;
8640;SDS011;4358;42.100;25.222;2023-06-10T11:15:27;4.83;;;3.10;;
8640;SDS011;4358;42.100;25.222;2023-06-10T11:18:07;3.97;;;3.57;;
8640;SDS011;4358;42.100;25.222;2023-06-10T11:23:25;3.40;;;3.10;;
8640;SDS011;4358;42.100;25.222;2023-06-10T11:26:13;4.40;;;3.30;;
8640;SDS011;4358;42.100;25.222;2023-06-10T11:28:42;3.30;;;3.00;;
8640;SDS011;4358;42.100;25.222;2023-06-10T11:31:27;5.07;;;3.13;;
8640;SDS011;4358;42.100;25.222;2023-06-10T11:33:55;4.03;;;3.13;;
8640;SDS011;4358;42.100;25.222;2023-06-10T11:36:23;3.40;;;2.90;;
8640;SDS011;4358;42.100;25.222;2023-06-10T11:38:53;5.83;;;3.10;;
8640;SDS011;4358;42.100;25.222;2023-06-10T11:41:23;3.10;;;2.80;;
8640;SDS011;4358;42.100;25.222;2023-06-10T11:43:50;4.73;;;3.67;;
8640;SDS011;4358;42.100;25.222;2023-06-10T11:46:17;7.50;;;3.63;;
8640;SDS011;4358;42.100;25.222;2023-06-10T11:48:48;4.10;;;3.30;;
8640;SDS011;4358;42.100;25.222;2023-06-10T11:51:15;3.67;;;3.23;;
8640;SDS011;4358;42.100;25.222;2023-06-10T11:53:43;4.87;;;3.37;;
8640;SDS011;4358;42.100;25.222;2023-06-10T11:56:10;3.83;;;2.97;;
8640;SDS011;4358;42.100;25.222;2023-06-10T11:58:39;3.30;;;3.00;;
8640;SDS011;4358;42.100;25.222;2023-06-10T12:01:10;4.67;;;3.10;;
8640;SDS011;4358;42.100;25.222;2023-06-10T12:03:37;5.13;;;3.22;;
8640;SDS011;4358;42.100;25.222;2023-06-10T12:06:05;3.40;;;3.10;;
8640;SDS011;4358;42.100;25.222;2023-06-10T12:08:32;4.47;;;3.20;;
8640;SDS011;4358;42.100;25.222;2023-06-10T12:10:59;5.20;;;3.20;;
8640;SDS011;4358;42.100;25.222;2023-06-10T12:13:27;3.27;;;2.60;;
8640;SDS011;4358;42.100;25.222;2023-06-10T12:16:05;4.63;;;3.30;;
8640;SDS011;4358;42.100;25.222;2023-06-10T12:18:33;4.83;;;3.40;;
8640;SDS011;4358;42.100;25.222;2023-06-10T12:21:00;5.43;;;3.70;;
8640;SDS011;4358;42.100;25.222;2023-06-10T12:23:28;3.77;;;3.47;;
8640;SDS011;4358;42.100;25.222;2023-06-10T12:25:55;5.33;;;3.53;;
8640;SDS011;4358;42.100;25.222;2023-06-10T12:28:22;3.77;;;3.47;;
8640;SDS011;4358;42.100;25.222;2023-06-10T12:30:50;4.20;;;3.17;;
8640;SDS011;4358;42.100;25.222;2023-06-10T12:33:19;4.60;;;3.20;;
8640;SDS011;4358;42.100;25.222;2023-06-10T12:35:47;5.40;;;3.50;;
8640;SDS011;4358;42.100;25.222;2023-06-10T12:38:20;6.37;;;3.17;;
8640;SDS011;4358;42.100;25.222;2023-06-10T12:40:49;6.90;;;3.30;;
8640;SDS011;4358;42.100;25.222;2023-06-10T12:43:19;3.77;;;2.93;;
8640;SDS011;4358;42.100;25.222;2023-06-10T12:45:46;3.73;;;3.23;;
8640;SDS011;4358;42.100;25.222;2023-06-10T12:48:17;3.20;;;2.90;;
8640;SDS011;4358;42.100;25.222;2023-06-10T12:50:50;4.53;;;3.27;;
8640;SDS011;4358;42.100;25.222;2023-06-10T12:53:18;3.43;;;2.70;;
8640;SDS011;4358;42.100;25.222;2023-06-10T12:55:46;4.23;;;3.00;;
8640;SDS011;4358;42.100;25.222;2023-06-10T12:58:13;3.10;;;2.77;;
8640;SDS011;4358;42.100;25.222;2023-06-10T13:00:40;3.20;;;2.70;;
8640;SDS011;4358;42.100;25.222;2023-06-10T13:03:08;3.33;;;2.63;;
8640;SDS011;4358;42.100;25.222;2023-06-10T13:05:37;3.10;;;2.80;;
8640;SDS011;4358;42.100;25.222;2023-06-10T13:08:05;4.67;;;2.90;;
8640;SDS011;4358;42.100;25.222;2023-06-10T13:10:32;4.30;;;3.17;;
8640;SDS011;4358;42.100;25.222;2023-06-10T13:13:00;3.77;;;3.17;;
8640;SDS011;4358;42.100;25.222;2023-06-10T13:15:27;3.47;;;3.17;;
8640;SDS011;4358;42.100;25.222;2023-06-10T13:17:54;3.23;;;2.93;;
8640;SDS011;4358;42.100;25.222;2023-06-10T13:20:21;3.47;;;3.17;;
8640;SDS011;4358;42.100;25.222;2023-06-10T13:22:49;4.77;;;3.13;;
8640;SDS011;4358;42.100;25.222;2023-06-10T13:25:16;3.57;;;3.23;;
8640;SDS011;4358;42.100;25.222;2023-06-10T13:27:43;3.50;;;3.20;;
8640;SDS011;4358;42.100;25.222;2023-06-10T13:30:10;3.77;;;3.47;;
8640;SDS011;4358;42.100;25.222;2023-06-10T13:32:37;5.57;;;3.30;;
8640;SDS011;4358;42.100;25.222;2023-06-10T13:35:05;4.35;;;3.05;;
8640;SDS011;4358;42.100;25.222;2023-06-10T13:37:33;4.90;;;3.47;;
8640;SDS011;4358;42.100;25.222;2023-06-10T13:40:01;3.80;;;3.40;;
8640;SDS011;4358;42.100;25.222;2023-06-10T13:42:28;3.58;;;3.13;;
8640;SDS011;4358;42.100;25.222;2023-06-10T13:44:55;3.90;;;3.08;;
8640;SDS011;4358;42.100;25.222;2023-06-10T13:47:22;4.38;;;3.40;;
8640;SDS011;4358;42.100;25.222;2023-06-10T13:49:49;6.72;;;3.72;;
8640;SDS011;4358;42.100;25.222;2023-06-10T13:52:16;4.38;;;3.33;;
8640;SDS011;4358;42.100;25.222;2023-06-10T13:54:43;4.70;;;3.40;;
8640;SDS011;4358;42.100;25.222;2023-06-10T13:57:11;12.63;;;3.80;;
8640;SDS011;4358;42.100;25.222;2023-06-10T13:59:38;3.15;;;2.85;;
8640;SDS011;4358;42.100;25.222;2023-06-10T14:02:05;6.70;;;3.97;;
8640;SDS011;4358;42.100;25.222;2023-06-10T14:04:32;4.40;;;3.10;;
8640;SDS011;4358;42.100;25.222;2023-06-10T14:06:59;3.65;;;3.35;;
8640;SDS011;4358;42.100;25.222;2023-06-10T14:09:26;3.97;;;3.65;;
8640;SDS011;4358;42.100;25.222;2023-06-10T14:11:52;10.43;;;3.38;;
8640;SDS011;4358;42.100;25.222;2023-06-10T14:14:21;3.42;;;3.13;;
8640;SDS011;4358;42.100;25.222;2023-06-10T14:16:48;9.80;;;3.17;;
8640;SDS011;4358;42.100;25.222;2023-06-10T14:19:15;3.20;;;2.90;;
8640;SDS011;4358;42.100;25.222;2023-06-10T14:21:42;8.25;;;3.88;;
8640;SDS011;4358;42.100;25.222;2023-06-10T14:24:08;4.20;;;3.20;;
8640;SDS011;4358;42.100;25.222;2023-06-10T14:26:35;4.38;;;3.25;;
8640;SDS011;4358;42.100;25.222;2023-06-10T14:29:02;4.63;;;3.70;;
8640;SDS011;4358;42.100;25.222;2023-06-10T14:31:30;6.97;;;3.30;;
8640;SDS011;4358;42.100;25.222;2023-06-10T14:33:57;4.15;;;3.10;;
8640;SDS011;4358;42.100;25.222;2023-06-10T14:36:24;3.40;;;3.00;;
8640;SDS011;4358;42.100;25.222;2023-06-10T14:38:51;5.40;;;3.65;;
8640;SDS011;4358;42.100;25.222;2023-06-10T14:41:18;4.63;;;3.53;;
8640;SDS011;4358;42.100;25.222;2023-06-10T14:43:47;4.25;;;3.00;;
8640;SDS011;4358;42.100;25.222;2023-06-10T14:46:14;3.20;;;3.00;;
8640;SDS011;4358;42.100;25.222;2023-06-10T14:48:42;4.43;;;3.30;;
8640;SDS011;4358;42.100;25.222;2023-06-10T14:51:09;3.40;;;2.90;;
8640;SDS011;4358;42.100;25.222;2023-06-10T14:53:35;5.82;;;3.00;;
8640;SDS011;4358;42.100;25.222;2023-06-10T14:56:02;3.30;;;3.00;;
8640;SDS011;4358;42.100;25.222;2023-06-10T14:58:29;4.93;;;3.20;;
8640;SDS011;4358;42.100;25.222;2023-06-10T15:00:56;7.30;;;3.30;;
8640;SDS011;4358;42.100;25.222;2023-06-10T15:03:23;3.95;;;2.95;;
8640;SDS011;4358;42.100;25.222;2023-06-10T15:05:51;3.90;;;2.88;;
8640;SDS011;4358;42.100;25.222;2023-06-10T15:08:18;3.45;;;2.92;;